Merriman, Nebraska
Current Conditions -  °F | °C
As of 3:52 AM on Tuesday 21 Oct 2014 (Local Time) from KIEN Reporting Station
Clear Clear  
Wind Chill: 59°   Ceiling: Unl
Heat Index: 59°   Visibility: 10mi
Dew Point: 42°   Wind: 18mph
Humidity: 53%   Direction: 200°SSW
Pressure: 29.91"   Gusts: 26mph
Location:  42.92°N, 101.7°W
Report Text: KIEN 210952Z AUTO 20016G23KT 10SM CLR 15/06 A2991 RMK AO2 PK WND 18026/0935 SLP101 T01500056 PWINO $
Loading
Personal Weather Stations






























Interactive Weather Map
Tropical Storm Tracking
New forecast layout! Learn more

10-Day Weather Forecast

Advertisements
Track Severe Weather on mobile